KOKK/OKK METAR and TAF weather

Enter ICAO airport designator
Station Type Date Time Source
KOKK METAR 2019/07/15 19:56 UTC NOAA

KOKK 151956Z AUTO 27010KT 10SM FEW060 33/18 A3008 RMK AO2 SLP180 T03280178


Station Type Date Time Source
KOKK Decoded METAR 2019/07/15 19:56 UTC NOAA

Kokomo, Kokomo Municipal Airport, IN, United States (KOKK) 40-32N 086-04W
Jul 15, 2019 - 03:56 PM EDT / 2019.07.15 1956 UTC
Wind: from the W (270 degrees) at 12 MPH (10 KT):0
Visibility: 10 mile(s):0
Sky conditions: mostly clear
Temperature: 91.0 F (32.8 C)
Dew Point: 64.0 F (17.8 C)
Relative Humidity: 40%
Pressure (altimeter): 30.08 in. Hg (1018 hPa)
ob: KOKK 151956Z AUTO 27010KT 10SM FEW060 33/18 A3008 RMK AO2 SLP180 T03280178
cycle: 20

Station Type Date Time Source
KOKK TAF UTC NOAA

Error!

Example: see airport list